sensor_id;sensor_type;location;lat;lon;timestamp;P1;durP1;ratioP1;P2;durP2;ratioP2
76826;SDS011;65788;52.284;20.890;2023-09-12T00:00:06;19.20;;;13.90;;
76826;SDS011;65788;52.284;20.890;2023-09-12T00:02:53;14.60;;;12.80;;
76826;SDS011;65788;52.284;20.890;2023-09-12T00:05:20;13.80;;;12.40;;
76826;SDS011;65788;52.284;20.890;2023-09-12T00:07:47;16.10;;;12.90;;
76826;SDS011;65788;52.284;20.890;2023-09-12T00:10:14;15.10;;;13.00;;
76826;SDS011;65788;52.284;20.890;2023-09-12T00:12:40;15.70;;;12.40;;
76826;SDS011;65788;52.284;20.890;2023-09-12T00:15:07;17.70;;;13.00;;
76826;SDS011;65788;52.284;20.890;2023-09-12T00:17:35;17.70;;;12.00;;
76826;SDS011;65788;52.284;20.890;2023-09-12T00:20:01;16.50;;;12.40;;
76826;SDS011;65788;52.284;20.890;2023-09-12T00:22:30;19.40;;;14.90;;
76826;SDS011;65788;52.284;20.890;2023-09-12T00:24:57;18.90;;;14.20;;
76826;SDS011;65788;52.284;20.890;2023-09-12T00:27:23;17.60;;;14.10;;
76826;SDS011;65788;52.284;20.890;2023-09-12T00:29:50;15.00;;;13.20;;
76826;SDS011;65788;52.284;20.890;2023-09-12T00:32:17;17.10;;;13.70;;
76826;SDS011;65788;52.284;20.890;2023-09-12T00:34:44;20.60;;;15.10;;
76826;SDS011;65788;52.284;20.890;2023-09-12T00:37:10;17.40;;;13.80;;
76826;SDS011;65788;52.284;20.890;2023-09-12T00:39:38;15.20;;;13.20;;
76826;SDS011;65788;52.284;20.890;2023-09-12T00:42:05;14.60;;;12.50;;
76826;SDS011;65788;52.284;20.890;2023-09-12T00:47:08;17.10;;;13.40;;
76826;SDS011;65788;52.284;20.890;2023-09-12T00:49:36;16.20;;;13.10;;
76826;SDS011;65788;52.284;20.890;2023-09-12T00:52:03;16.00;;;12.50;;
76826;SDS011;65788;52.284;20.890;2023-09-12T00:54:31;16.80;;;13.70;;
76826;SDS011;65788;52.284;20.890;2023-09-12T00:56:58;14.10;;;11.70;;
76826;SDS011;65788;52.284;20.890;2023-09-12T00:59:25;14.60;;;12.00;;
76826;SDS011;65788;52.284;20.890;2023-09-12T01:01:51;15.80;;;12.90;;
76826;SDS011;65788;52.284;20.890;2023-09-12T01:04:18;14.50;;;12.70;;
76826;SDS011;65788;52.284;20.890;2023-09-12T01:06:46;18.00;;;13.20;;
76826;SDS011;65788;52.284;20.890;2023-09-12T01:11:41;18.80;;;13.80;;
76826;SDS011;65788;52.284;20.890;2023-09-12T01:14:08;14.10;;;12.60;;
76826;SDS011;65788;52.284;20.890;2023-09-12T01:16:35;14.40;;;12.90;;
76826;SDS011;65788;52.284;20.890;2023-09-12T01:19:03;17.20;;;14.30;;
76826;SDS011;65788;52.284;20.890;2023-09-12T01:21:41;15.10;;;13.20;;
76826;SDS011;65788;52.284;20.890;2023-09-12T01:29:57;15.30;;;13.30;;
76826;SDS011;65788;52.284;20.890;2023-09-12T01:32:30;15.10;;;13.20;;
76826;SDS011;65788;52.284;20.890;2023-09-12T01:34:59;15.90;;;13.70;;
76826;SDS011;65788;52.284;20.890;2023-09-12T01:37:26;13.80;;;12.20;;
76826;SDS011;65788;52.284;20.890;2023-09-12T01:39:53;14.20;;;12.70;;
76826;SDS011;65788;52.284;20.890;2023-09-12T01:42:20;14.60;;;13.10;;
76826;SDS011;65788;52.284;20.890;2023-09-12T01:44:49;17.50;;;13.90;;
76826;SDS011;65788;52.284;20.890;2023-09-12T01:47:20;14.70;;;13.00;;
76826;SDS011;65788;52.284;20.890;2023-09-12T01:49:51;15.40;;;13.00;;
76826;SDS011;65788;52.284;20.890;2023-09-12T01:52:20;15.90;;;13.70;;
76826;SDS011;65788;52.284;20.890;2023-09-12T01:54:48;15.20;;;13.20;;
76826;SDS011;65788;52.284;20.890;2023-09-12T01:57:17;15.50;;;12.60;;
76826;SDS011;65788;52.284;20.890;2023-09-12T01:59:47;16.00;;;13.00;;
76826;SDS011;65788;52.284;20.890;2023-09-12T02:02:18;14.70;;;12.90;;
76826;SDS011;65788;52.284;20.890;2023-09-12T02:04:47;16.70;;;13.30;;
76826;SDS011;65788;52.284;20.890;2023-09-12T02:07:23;18.40;;;13.20;;
76826;SDS011;65788;52.284;20.890;2023-09-12T02:09:53;16.90;;;13.40;;
76826;SDS011;65788;52.284;20.890;2023-09-12T02:12:19;17.70;;;14.20;;
76826;SDS011;65788;52.284;20.890;2023-09-12T02:14:46;15.90;;;13.70;;
76826;SDS011;65788;52.284;20.890;2023-09-12T02:17:13;15.70;;;12.70;;
76826;SDS011;65788;52.284;20.890;2023-09-12T02:19:39;19.20;;;13.90;;
76826;SDS011;65788;52.284;20.890;2023-09-12T02:22:06;17.00;;;13.00;;
76826;SDS011;65788;52.284;20.890;2023-09-12T02:24:34;16.90;;;14.10;;
76826;SDS011;65788;52.284;20.890;2023-09-12T02:27:01;17.10;;;14.00;;
76826;SDS011;65788;52.284;20.890;2023-09-12T02:29:28;19.00;;;13.00;;
76826;SDS011;65788;52.284;20.890;2023-09-12T02:31:55;17.10;;;13.70;;
76826;SDS011;65788;52.284;20.890;2023-09-12T02:34:22;16.10;;;13.00;;
76826;SDS011;65788;52.284;20.890;2023-09-12T02:36:49;16.00;;;12.90;;
76826;SDS011;65788;52.284;20.890;2023-09-12T02:39:16;17.70;;;14.30;;
76826;SDS011;65788;52.284;20.890;2023-09-12T02:41:42;15.10;;;13.10;;
76826;SDS011;65788;52.284;20.890;2023-09-12T02:44:09;15.90;;;13.10;;
76826;SDS011;65788;52.284;20.890;2023-09-12T02:46:36;17.80;;;14.20;;
76826;SDS011;65788;52.284;20.890;2023-09-12T02:49:03;23.70;;;14.10;;
76826;SDS011;65788;52.284;20.890;2023-09-12T02:51:31;16.10;;;14.40;;
76826;SDS011;65788;52.284;20.890;2023-09-12T02:53:57;16.00;;;13.50;;
76826;SDS011;65788;52.284;20.890;2023-09-12T02:56:24;16.60;;;14.50;;
76826;SDS011;65788;52.284;20.890;2023-09-12T02:58:51;16.40;;;13.50;;
76826;SDS011;65788;52.284;20.890;2023-09-12T03:01:18;15.50;;;13.50;;
76826;SDS011;65788;52.284;20.890;2023-09-12T03:03:46;16.60;;;12.80;;
76826;SDS011;65788;52.284;20.890;2023-09-12T03:06:13;14.50;;;12.60;;
76826;SDS011;65788;52.284;20.890;2023-09-12T03:08:41;18.10;;;14.40;;
76826;SDS011;65788;52.284;20.890;2023-09-12T03:11:08;18.50;;;13.70;;
76826;SDS011;65788;52.284;20.890;2023-09-12T03:13:39;20.20;;;14.50;;
76826;SDS011;65788;52.284;20.890;2023-09-12T03:16:10;18.80;;;14.30;;
76826;SDS011;65788;52.284;20.890;2023-09-12T03:18:38;18.20;;;14.80;;
76826;SDS011;65788;52.284;20.890;2023-09-12T03:21:05;20.00;;;14.80;;
76826;SDS011;65788;52.284;20.890;2023-09-12T03:23:32;16.10;;;14.00;;
76826;SDS011;65788;52.284;20.890;2023-09-12T03:26:00;17.30;;;14.40;;
76826;SDS011;65788;52.284;20.890;2023-09-12T03:28:31;19.30;;;15.30;;
76826;SDS011;65788;52.284;20.890;2023-09-12T03:31:03;20.40;;;15.70;;
76826;SDS011;65788;52.284;20.890;2023-09-12T03:33:32;20.60;;;15.60;;
76826;SDS011;65788;52.284;20.890;2023-09-12T03:35:59;20.60;;;16.50;;
76826;SDS011;65788;52.284;20.890;2023-09-12T03:38:26;21.80;;;16.60;;
76826;SDS011;65788;52.284;20.890;2023-09-12T03:40:52;22.40;;;16.80;;
76826;SDS011;65788;52.284;20.890;2023-09-12T03:43:19;19.30;;;15.90;;
76826;SDS011;65788;52.284;20.890;2023-09-12T03:45:46;20.30;;;15.80;;
76826;SDS011;65788;52.284;20.890;2023-09-12T03:48:13;20.50;;;15.30;;
76826;SDS011;65788;52.284;20.890;2023-09-12T03:50:39;21.20;;;15.70;;
76826;SDS011;65788;52.284;20.890;2023-09-12T03:53:06;24.90;;;16.80;;
76826;SDS011;65788;52.284;20.890;2023-09-12T03:55:33;21.20;;;15.80;;
76826;SDS011;65788;52.284;20.890;2023-09-12T03:57:59;21.40;;;15.20;;
76826;SDS011;65788;52.284;20.890;2023-09-12T04:00:26;19.70;;;15.30;;
76826;SDS011;65788;52.284;20.890;2023-09-12T04:02:53;19.50;;;15.30;;
76826;SDS011;65788;52.284;20.890;2023-09-12T04:05:19;20.70;;;14.70;;
76826;SDS011;65788;52.284;20.890;2023-09-12T04:07:46;19.70;;;15.50;;
76826;SDS011;65788;52.284;20.890;2023-09-12T04:10:13;21.20;;;14.90;;
76826;SDS011;65788;52.284;20.890;2023-09-12T04:12:40;22.50;;;16.10;;
76826;SDS011;65788;52.284;20.890;2023-09-12T04:15:06;17.40;;;14.90;;
76826;SDS011;65788;52.284;20.890;2023-09-12T04:17:33;18.50;;;14.20;;
76826;SDS011;65788;52.284;20.890;2023-09-12T04:20:00;17.40;;;14.60;;
76826;SDS011;65788;52.284;20.890;2023-09-12T04:22:27;18.70;;;14.70;;
76826;SDS011;65788;52.284;20.890;2023-09-12T04:24:55;20.00;;;15.00;;
76826;SDS011;65788;52.284;20.890;2023-09-12T04:27:21;19.80;;;15.40;;
76826;SDS011;65788;52.284;20.890;2023-09-12T04:29:48;21.00;;;15.00;;
76826;SDS011;65788;52.284;20.890;2023-09-12T04:32:15;20.10;;;15.10;;
76826;SDS011;65788;52.284;20.890;2023-09-12T04:34:43;18.20;;;14.20;;
76826;SDS011;65788;52.284;20.890;2023-09-12T04:37:10;18.80;;;14.80;;
76826;SDS011;65788;52.284;20.890;2023-09-12T04:39:36;18.50;;;15.00;;
76826;SDS011;65788;52.284;20.890;2023-09-12T04:42:03;18.60;;;15.60;;
76826;SDS011;65788;52.284;20.890;2023-09-12T04:44:38;17.90;;;15.40;;
76826;SDS011;65788;52.284;20.890;2023-09-12T04:47:06;18.20;;;14.10;;
76826;SDS011;65788;52.284;20.890;2023-09-12T04:49:33;16.70;;;14.90;;
76826;SDS011;65788;52.284;20.890;2023-09-12T04:52:00;19.30;;;14.20;;
76826;SDS011;65788;52.284;20.890;2023-09-12T04:54:27;18.40;;;14.90;;
76826;SDS011;65788;52.284;20.890;2023-09-12T04:56:54;15.20;;;13.60;;
76826;SDS011;65788;52.284;20.890;2023-09-12T04:59:21;17.20;;;13.90;;
76826;SDS011;65788;52.284;20.890;2023-09-12T05:01:48;15.70;;;13.80;;
76826;SDS011;65788;52.284;20.890;2023-09-12T05:04:15;16.50;;;13.90;;
76826;SDS011;65788;52.284;20.890;2023-09-12T05:06:41;17.00;;;14.00;;
76826;SDS011;65788;52.284;20.890;2023-09-12T05:09:08;15.80;;;13.90;;
76826;SDS011;65788;52.284;20.890;2023-09-12T05:11:37;16.50;;;14.80;;
76826;SDS011;65788;52.284;20.890;2023-09-12T05:14:04;15.30;;;13.30;;
76826;SDS011;65788;52.284;20.890;2023-09-12T05:16:31;16.40;;;13.10;;
76826;SDS011;65788;52.284;20.890;2023-09-12T05:18:58;16.60;;;13.60;;
76826;SDS011;65788;52.284;20.890;2023-09-12T07:50:52;18.50;;;14.10;;
76826;SDS011;65788;52.284;20.890;2023-09-12T07:53:20;20.90;;;13.90;;
76826;SDS011;65788;52.284;20.890;2023-09-12T07:55:47;22.00;;;14.20;;
76826;SDS011;65788;52.284;20.890;2023-09-12T07:58:14;20.10;;;13.80;;
76826;SDS011;65788;52.284;20.890;2023-09-12T08:00:42;19.90;;;14.30;;
76826;SDS011;65788;52.284;20.890;2023-09-12T08:03:08;19.30;;;13.60;;
76826;SDS011;65788;52.284;20.890;2023-09-12T08:05:35;16.80;;;12.80;;
76826;SDS011;65788;52.284;20.890;2023-09-12T08:08:02;22.10;;;13.50;;
76826;SDS011;65788;52.284;20.890;2023-09-12T08:10:30;18.00;;;12.70;;
76826;SDS011;65788;52.284;20.890;2023-09-12T08:12:56;21.90;;;13.10;;
76826;SDS011;65788;52.284;20.890;2023-09-12T08:15:23;19.50;;;12.90;;
76826;SDS011;65788;52.284;20.890;2023-09-12T08:17:50;17.70;;;11.20;;
76826;SDS011;65788;52.284;20.890;2023-09-12T08:20:19;18.40;;;12.60;;
76826;SDS011;65788;52.284;20.890;2023-09-12T08:22:47;18.80;;;12.80;;
76826;SDS011;65788;52.284;20.890;2023-09-12T08:25:15;19.50;;;12.30;;
76826;SDS011;65788;52.284;20.890;2023-09-12T08:27:43;18.70;;;12.40;;
76826;SDS011;65788;52.284;20.890;2023-09-12T08:30:11;17.30;;;11.70;;
76826;SDS011;65788;52.284;20.890;2023-09-12T08:32:39;15.40;;;11.30;;
76826;SDS011;65788;52.284;20.890;2023-09-12T08:35:10;16.90;;;12.60;;
76826;SDS011;65788;52.284;20.890;2023-09-12T08:40:22;18.60;;;12.70;;
76826;SDS011;65788;52.284;20.890;2023-09-12T08:42:50;15.50;;;12.00;;
76826;SDS011;65788;52.284;20.890;2023-09-12T08:45:19;17.40;;;11.40;;
76826;SDS011;65788;52.284;20.890;2023-09-12T08:47:49;16.10;;;12.30;;
76826;SDS011;65788;52.284;20.890;2023-09-12T08:50:18;14.70;;;11.40;;
76826;SDS011;65788;52.284;20.890;2023-09-12T08:52:47;15.50;;;12.60;;
76826;SDS011;65788;52.284;20.890;2023-09-12T08:55:14;16.60;;;11.80;;
76826;SDS011;65788;52.284;20.890;2023-09-12T08:57:41;14.80;;;11.90;;
76826;SDS011;65788;52.284;20.890;2023-09-12T09:00:10;16.60;;;11.60;;
76826;SDS011;65788;52.284;20.890;2023-09-12T09:02:39;14.50;;;11.70;;
76826;SDS011;65788;52.284;20.890;2023-09-12T09:05:07;14.80;;;10.80;;
76826;SDS011;65788;52.284;20.890;2023-09-12T09:07:38;14.20;;;11.60;;
76826;SDS011;65788;52.284;20.890;2023-09-12T09:10:08;12.00;;;10.70;;
76826;SDS011;65788;52.284;20.890;2023-09-12T09:12:42;17.20;;;11.80;;
76826;SDS011;65788;52.284;20.890;2023-09-12T09:15:23;13.40;;;10.40;;
76826;SDS011;65788;52.284;20.890;2023-09-12T09:17:56;12.60;;;11.10;;
76826;SDS011;65788;52.284;20.890;2023-09-12T09:20:27;14.70;;;10.90;;
76826;SDS011;65788;52.284;20.890;2023-09-12T09:22:57;13.70;;;11.30;;
76826;SDS011;65788;52.284;20.890;2023-09-12T09:25:26;13.50;;;10.70;;
76826;SDS011;65788;52.284;20.890;2023-09-12T09:27:53;12.40;;;10.50;;
76826;SDS011;65788;52.284;20.890;2023-09-12T09:33:08;13.60;;;9.80;;
76826;SDS011;65788;52.284;20.890;2023-09-12T09:35:35;17.50;;;11.00;;
76826;SDS011;65788;52.284;20.890;2023-09-12T09:40:32;14.20;;;9.60;;
76826;SDS011;65788;52.284;20.890;2023-09-12T09:45:31;13.40;;;10.00;;
76826;SDS011;65788;52.284;20.890;2023-09-12T09:48:05;9.90;;;8.20;;
76826;SDS011;65788;52.284;20.890;2023-09-12T09:50:34;12.70;;;10.20;;
76826;SDS011;65788;52.284;20.890;2023-09-12T09:53:04;10.90;;;9.70;;
76826;SDS011;65788;52.284;20.890;2023-09-12T09:55:35;12.30;;;9.20;;
76826;SDS011;65788;52.284;20.890;2023-09-12T09:58:02;10.50;;;9.30;;
76826;SDS011;65788;52.284;20.890;2023-09-12T10:00:36;10.70;;;9.60;;
76826;SDS011;65788;52.284;20.890;2023-09-12T10:03:04;11.70;;;9.40;;
76826;SDS011;65788;52.284;20.890;2023-09-12T10:05:33;12.80;;;9.90;;
76826;SDS011;65788;52.284;20.890;2023-09-12T10:08:00;11.10;;;9.90;;
76826;SDS011;65788;52.284;20.890;2023-09-12T10:10:29;10.60;;;9.50;;
76826;SDS011;65788;52.284;20.890;2023-09-12T10:12:57;13.50;;;9.50;;
76826;SDS011;65788;52.284;20.890;2023-09-12T10:15:28;11.70;;;10.40;;
76826;SDS011;65788;52.284;20.890;2023-09-12T10:17:57;10.90;;;9.80;;
76826;SDS011;65788;52.284;20.890;2023-09-12T10:20:33;11.40;;;9.80;;
76826;SDS011;65788;52.284;20.890;2023-09-12T10:23:06;11.30;;;9.50;;
76826;SDS011;65788;52.284;20.890;2023-09-12T10:28:18;10.60;;;9.50;;
76826;SDS011;65788;52.284;20.890;2023-09-12T10:34:10;11.10;;;9.40;;
76826;SDS011;65788;52.284;20.890;2023-09-12T10:36:40;11.40;;;9.90;;
76826;SDS011;65788;52.284;20.890;2023-09-12T10:41:54;10.90;;;9.40;;
76826;SDS011;65788;52.284;20.890;2023-09-12T10:44:22;11.40;;;8.80;;
76826;SDS011;65788;52.284;20.890;2023-09-12T10:46:51;11.90;;;9.40;;
76826;SDS011;65788;52.284;20.890;2023-09-12T10:52:26;10.80;;;9.40;;
76826;SDS011;65788;52.284;20.890;2023-09-12T10:54:54;11.20;;;9.90;;
76826;SDS011;65788;52.284;20.890;2023-09-12T10:57:21;11.10;;;10.00;;
76826;SDS011;65788;52.284;20.890;2023-09-12T11:02:37;11.40;;;9.70;;
76826;SDS011;65788;52.284;20.890;2023-09-12T11:08:00;11.40;;;9.50;;
76826;SDS011;65788;52.284;20.890;2023-09-12T11:10:30;11.00;;;9.90;;
76826;SDS011;65788;52.284;20.890;2023-09-12T11:12:58;10.20;;;9.20;;
76826;SDS011;65788;52.284;20.890;2023-09-12T11:15:26;13.70;;;10.20;;
76826;SDS011;65788;52.284;20.890;2023-09-12T11:23:17;13.20;;;8.60;;
76826;SDS011;65788;52.284;20.890;2023-09-12T11:25:44;12.40;;;9.30;;
76826;SDS011;65788;52.284;20.890;2023-09-12T11:28:11;15.80;;;9.30;;
76826;SDS011;65788;52.284;20.890;2023-09-12T11:30:54;9.80;;;8.60;;
76826;SDS011;65788;52.284;20.890;2023-09-12T11:33:24;10.80;;;9.00;;
76826;SDS011;65788;52.284;20.890;2023-09-12T11:38:27;12.90;;;8.90;;
76826;SDS011;65788;52.284;20.890;2023-09-12T11:40:55;10.70;;;9.50;;
76826;SDS011;65788;52.284;20.890;2023-09-12T11:43:23;13.90;;;10.00;;
76826;SDS011;65788;52.284;20.890;2023-09-12T11:45:52;13.70;;;10.80;;
76826;SDS011;65788;52.284;20.890;2023-09-12T11:48:20;10.50;;;9.50;;
76826;SDS011;65788;52.284;20.890;2023-09-12T11:50:52;11.00;;;9.80;;
76826;SDS011;65788;52.284;20.890;2023-09-12T11:53:24;11.30;;;9.30;;
76826;SDS011;65788;52.284;20.890;2023-09-12T11:55:56;14.00;;;10.50;;
76826;SDS011;65788;52.284;20.890;2023-09-12T11:58:25;11.90;;;10.30;;
76826;SDS011;65788;52.284;20.890;2023-09-12T12:00:54;12.50;;;10.30;;
76826;SDS011;65788;52.284;20.890;2023-09-12T12:03:23;15.30;;;10.20;;
76826;SDS011;65788;52.284;20.890;2023-09-12T12:05:50;12.40;;;10.40;;
76826;SDS011;65788;52.284;20.890;2023-09-12T12:08:18;11.70;;;10.50;;
76826;SDS011;65788;52.284;20.890;2023-09-12T12:10:49;12.30;;;10.00;;
76826;SDS011;65788;52.284;20.890;2023-09-12T12:13:20;11.80;;;10.40;;
76826;SDS011;65788;52.284;20.890;2023-09-12T12:18:14;13.70;;;10.70;;
76826;SDS011;65788;52.284;20.890;2023-09-12T12:20:41;14.20;;;9.90;;
76826;SDS011;65788;52.284;20.890;2023-09-12T12:23:08;12.90;;;10.70;;
76826;SDS011;65788;52.284;20.890;2023-09-12T12:25:35;12.30;;;11.00;;
76826;SDS011;65788;52.284;20.890;2023-09-12T12:28:02;13.30;;;10.90;;
76826;SDS011;65788;52.284;20.890;2023-09-12T12:30:30;11.10;;;9.80;;
76826;SDS011;65788;52.284;20.890;2023-09-12T12:33:00;13.10;;;11.00;;
76826;SDS011;65788;52.284;20.890;2023-09-12T12:35:29;13.30;;;10.40;;
76826;SDS011;65788;52.284;20.890;2023-09-12T12:37:55;15.10;;;10.40;;
76826;SDS011;65788;52.284;20.890;2023-09-12T12:40:23;12.80;;;11.40;;
76826;SDS011;65788;52.284;20.890;2023-09-12T12:42:50;11.80;;;10.60;;
76826;SDS011;65788;52.284;20.890;2023-09-12T12:45:20;12.20;;;11.00;;
76826;SDS011;65788;52.284;20.890;2023-09-12T12:47:56;11.80;;;10.60;;
76826;SDS011;65788;52.284;20.890;2023-09-12T12:50:24;12.40;;;11.10;;
76826;SDS011;65788;52.284;20.890;2023-09-12T12:52:51;11.70;;;10.60;;
76826;SDS011;65788;52.284;20.890;2023-09-12T12:55:20;13.80;;;11.10;;
76826;SDS011;65788;52.284;20.890;2023-09-12T12:57:47;14.10;;;10.90;;
76826;SDS011;65788;52.284;20.890;2023-09-12T13:00:16;15.10;;;12.50;;
76826;SDS011;65788;52.284;20.890;2023-09-12T13:02:45;12.10;;;10.90;;
76826;SDS011;65788;52.284;20.890;2023-09-12T13:05:25;12.20;;;10.90;;
76826;SDS011;65788;52.284;20.890;2023-09-12T13:07:56;12.80;;;11.50;;
76826;SDS011;65788;52.284;20.890;2023-09-12T13:10:23;12.80;;;11.50;;
76826;SDS011;65788;52.284;20.890;2023-09-12T13:12:50;14.00;;;11.40;;
76826;SDS011;65788;52.284;20.890;2023-09-12T13:15:17;14.30;;;11.20;;
76826;SDS011;65788;52.284;20.890;2023-09-12T13:17:45;13.30;;;11.90;;
76826;SDS011;65788;52.284;20.890;2023-09-12T13:20:12;13.50;;;11.80;;
76826;SDS011;65788;52.284;20.890;2023-09-12T13:22:39;15.40;;;11.80;;
76826;SDS011;65788;52.284;20.890;2023-09-12T13:25:06;13.30;;;11.80;;
76826;SDS011;65788;52.284;20.890;2023-09-12T13:27:34;14.30;;;11.80;;
76826;SDS011;65788;52.284;20.890;2023-09-12T13:30:01;13.10;;;11.70;;
76826;SDS011;65788;52.284;20.890;2023-09-12T13:32:30;12.40;;;11.10;;
76826;SDS011;65788;52.284;20.890;2023-09-12T13:34:57;12.20;;;10.80;;
76826;SDS011;65788;52.284;20.890;2023-09-12T13:37:23;12.50;;;11.20;;
76826;SDS011;65788;52.284;20.890;2023-09-12T13:39:54;13.70;;;11.50;;
76826;SDS011;65788;52.284;20.890;2023-09-12T13:42:20;12.90;;;11.60;;
76826;SDS011;65788;52.284;20.890;2023-09-12T13:44:50;13.30;;;11.90;;
76826;SDS011;65788;52.284;20.890;2023-09-12T13:47:17;12.70;;;10.80;;
76826;SDS011;65788;52.284;20.890;2023-09-12T13:49:48;13.50;;;11.10;;
76826;SDS011;65788;52.284;20.890;2023-09-12T13:52:21;13.60;;;12.20;;
76826;SDS011;65788;52.284;20.890;2023-09-12T13:54:48;15.30;;;11.30;;
76826;SDS011;65788;52.284;20.890;2023-09-12T13:57:15;13.40;;;11.30;;
76826;SDS011;65788;52.284;20.890;2023-09-12T13:59:43;13.30;;;10.80;;
76826;SDS011;65788;52.284;20.890;2023-09-12T14:02:10;12.70;;;11.20;;
76826;SDS011;65788;52.284;20.890;2023-09-12T14:04:38;12.90;;;10.90;;
76826;SDS011;65788;52.284;20.890;2023-09-12T14:07:04;12.70;;;11.40;;
76826;SDS011;65788;52.284;20.890;2023-09-12T14:09:31;13.20;;;11.40;;
76826;SDS011;65788;52.284;20.890;2023-09-12T14:11:58;13.50;;;11.50;;
76826;SDS011;65788;52.284;20.890;2023-09-12T14:14:25;12.80;;;11.50;;
76826;SDS011;65788;52.284;20.890;2023-09-12T14:16:52;12.40;;;11.00;;
76826;SDS011;65788;52.284;20.890;2023-09-12T14:19:20;12.40;;;11.10;;
76826;SDS011;65788;52.284;20.890;2023-09-12T14:21:47;12.20;;;10.80;;
76826;SDS011;65788;52.284;20.890;2023-09-12T14:24:14;14.00;;;12.10;;
76826;SDS011;65788;52.284;20.890;2023-09-12T14:26:41;12.10;;;10.80;;
76826;SDS011;65788;52.284;20.890;2023-09-12T14:29:07;12.30;;;11.10;;
76826;SDS011;65788;52.284;20.890;2023-09-12T14:31:34;12.40;;;11.10;;
76826;SDS011;65788;52.284;20.890;2023-09-12T14:34:03;11.60;;;10.40;;
76826;SDS011;65788;52.284;20.890;2023-09-12T14:36:32;12.70;;;11.30;;
76826;SDS011;65788;52.284;20.890;2023-09-12T14:38:59;12.80;;;11.50;;
76826;SDS011;65788;52.284;20.890;2023-09-12T14:41:26;13.30;;;11.70;;
76826;SDS011;65788;52.284;20.890;2023-09-12T14:43:52;14.80;;;11.90;;
76826;SDS011;65788;52.284;20.890;2023-09-12T14:46:19;12.40;;;10.80;;
76826;SDS011;65788;52.284;20.890;2023-09-12T14:48:46;12.40;;;11.10;;
76826;SDS011;65788;52.284;20.890;2023-09-12T14:51:13;12.90;;;11.60;;
76826;SDS011;65788;52.284;20.890;2023-09-12T14:53:39;13.00;;;11.70;;
76826;SDS011;65788;52.284;20.890;2023-09-12T14:56:10;12.70;;;11.20;;
76826;SDS011;65788;52.284;20.890;2023-09-12T14:58:37;16.90;;;11.80;;
76826;SDS011;65788;52.284;20.890;2023-09-12T15:01:04;13.10;;;11.80;;
76826;SDS011;65788;52.284;20.890;2023-09-12T15:03:31;14.10;;;12.60;;
76826;SDS011;65788;52.284;20.890;2023-09-12T15:06:04;13.20;;;11.80;;
76826;SDS011;65788;52.284;20.890;2023-09-12T15:08:31;14.10;;;11.80;;
76826;SDS011;65788;52.284;20.890;2023-09-12T15:10:58;13.10;;;11.70;;
76826;SDS011;65788;52.284;20.890;2023-09-12T15:13:25;13.50;;;11.80;;
76826;SDS011;65788;52.284;20.890;2023-09-12T15:15:51;13.90;;;11.90;;
76826;SDS011;65788;52.284;20.890;2023-09-12T15:18:18;15.60;;;11.30;;
76826;SDS011;65788;52.284;20.890;2023-09-12T15:20:45;13.40;;;11.90;;
76826;SDS011;65788;52.284;20.890;2023-09-12T15:23:11;13.10;;;11.80;;
76826;SDS011;65788;52.284;20.890;2023-09-12T15:25:38;13.00;;;11.60;;
76826;SDS011;65788;52.284;20.890;2023-09-12T15:28:05;14.70;;;10.90;;
76826;SDS011;65788;52.284;20.890;2023-09-12T15:30:32;13.60;;;11.70;;
76826;SDS011;65788;52.284;20.890;2023-09-12T15:32:58;16.00;;;12.70;;
76826;SDS011;65788;52.284;20.890;2023-09-12T15:35:25;13.50;;;11.50;;
76826;SDS011;65788;52.284;20.890;2023-09-12T15:37:52;14.20;;;11.50;;
76826;SDS011;65788;52.284;20.890;2023-09-12T15:40:18;13.10;;;11.70;;
76826;SDS011;65788;52.284;20.890;2023-09-12T15:42:45;14.10;;;11.30;;
76826;SDS011;65788;52.284;20.890;2023-09-12T15:45:13;12.90;;;11.60;;
76826;SDS011;65788;52.284;20.890;2023-09-12T15:47:42;15.40;;;12.10;;
76826;SDS011;65788;52.284;20.890;2023-09-12T15:50:09;12.60;;;11.20;;
76826;SDS011;65788;52.284;20.890;2023-09-12T15:52:36;13.80;;;11.60;;
76826;SDS011;65788;52.284;20.890;2023-09-12T15:55:06;13.40;;;11.80;;
76826;SDS011;65788;52.284;20.890;2023-09-12T15:57:34;14.00;;;11.60;;
76826;SDS011;65788;52.284;20.890;2023-09-12T16:00:04;12.90;;;11.40;;
76826;SDS011;65788;52.284;20.890;2023-09-12T16:02:33;11.60;;;10.40;;
76826;SDS011;65788;52.284;20.890;2023-09-12T16:05:00;12.50;;;10.80;;
76826;SDS011;65788;52.284;20.890;2023-09-12T16:07:27;13.00;;;11.10;;
76826;SDS011;65788;52.284;20.890;2023-09-12T16:09:53;13.30;;;11.90;;
76826;SDS011;65788;52.284;20.890;2023-09-12T16:12:20;13.60;;;11.00;;
76826;SDS011;65788;52.284;20.890;2023-09-12T16:14:47;12.40;;;11.10;;
76826;SDS011;65788;52.284;20.890;2023-09-12T16:17:13;12.80;;;11.20;;
76826;SDS011;65788;52.284;20.890;2023-09-12T16:19:40;12.30;;;11.20;;
76826;SDS011;65788;52.284;20.890;2023-09-12T16:22:07;12.80;;;11.50;;
76826;SDS011;65788;52.284;20.890;2023-09-12T16:24:36;13.90;;;11.60;;
76826;SDS011;65788;52.284;20.890;2023-09-12T16:27:03;13.90;;;11.90;;
76826;SDS011;65788;52.284;20.890;2023-09-12T16:29:31;12.80;;;11.40;;
76826;SDS011;65788;52.284;20.890;2023-09-12T16:31:57;12.80;;;11.40;;
76826;SDS011;65788;52.284;20.890;2023-09-12T16:34:26;14.10;;;11.80;;
76826;SDS011;65788;52.284;20.890;2023-09-12T16:36:53;14.30;;;11.90;;
76826;SDS011;65788;52.284;20.890;2023-09-12T16:39:20;14.00;;;12.50;;
76826;SDS011;65788;52.284;20.890;2023-09-12T16:41:47;13.90;;;12.50;;
76826;SDS011;65788;52.284;20.890;2023-09-12T16:44:14;14.20;;;11.90;;
76826;SDS011;65788;52.284;20.890;2023-09-12T16:46:40;13.80;;;12.40;;
76826;SDS011;65788;52.284;20.890;2023-09-12T16:49:07;13.10;;;11.70;;
76826;SDS011;65788;52.284;20.890;2023-09-12T16:51:34;13.90;;;12.50;;
76826;SDS011;65788;52.284;20.890;2023-09-12T16:54:01;14.20;;;12.80;;
76826;SDS011;65788;52.284;20.890;2023-09-12T16:56:28;14.10;;;12.50;;
76826;SDS011;65788;52.284;20.890;2023-09-12T16:58:56;14.00;;;12.50;;
76826;SDS011;65788;52.284;20.890;2023-09-12T17:01:22;14.10;;;12.70;;
76826;SDS011;65788;52.284;20.890;2023-09-12T17:03:56;15.10;;;13.30;;
76826;SDS011;65788;52.284;20.890;2023-09-12T17:06:24;14.40;;;12.10;;
76826;SDS011;65788;52.284;20.890;2023-09-12T17:08:52;14.40;;;12.90;;
76826;SDS011;65788;52.284;20.890;2023-09-12T17:11:18;17.40;;;13.60;;
76826;SDS011;65788;52.284;20.890;2023-09-12T17:13:48;15.60;;;12.80;;
76826;SDS011;65788;52.284;20.890;2023-09-12T17:16:15;14.40;;;12.90;;
76826;SDS011;65788;52.284;20.890;2023-09-12T17:18:43;14.90;;;13.10;;
76826;SDS011;65788;52.284;20.890;2023-09-12T17:21:10;15.20;;;13.60;;
76826;SDS011;65788;52.284;20.890;2023-09-12T17:23:37;18.40;;;13.50;;
76826;SDS011;65788;52.284;20.890;2023-09-12T17:26:04;14.50;;;13.10;;
76826;SDS011;65788;52.284;20.890;2023-09-12T17:28:30;14.80;;;13.30;;
76826;SDS011;65788;52.284;20.890;2023-09-12T17:30:57;14.70;;;13.20;;
76826;SDS011;65788;52.284;20.890;2023-09-12T17:33:28;15.50;;;13.60;;